createdAt,value
2018-03-28T00:00:52.024Z,98438.31
2018-03-28T00:03:19.568Z,98433.75
2018-03-28T00:05:47.100Z,98434.82
2018-03-28T00:08:14.677Z,98438.47
2018-03-28T00:10:42.225Z,98453.28
2018-03-28T00:13:09.775Z,98448.97
2018-03-28T00:15:37.299Z,98466.05
2018-03-28T00:18:04.849Z,98451.59
2018-03-28T00:20:32.387Z,98452.39
2018-03-28T00:22:59.912Z,98451.15
2018-03-28T00:25:27.473Z,98458.55
2018-03-28T00:27:55.000Z,98452.66
2018-03-28T00:30:22.573Z,98450.15
2018-03-28T00:32:50.100Z,98461.23
2018-03-28T00:35:17.653Z,98464.52
2018-03-28T00:37:45.203Z,98457.77
2018-03-28T00:40:12.754Z,98462.55
2018-03-28T00:42:40.276Z,98453.59
2018-03-28T00:45:07.837Z,98457.66
2018-03-28T00:47:35.384Z,98457.73
2018-03-28T00:50:02.935Z,98470.98
2018-03-28T00:52:30.467Z,98457.56
2018-03-28T00:54:58.054Z,98459.86
2018-03-28T00:57:25.576Z,98469.34
2018-03-28T00:59:53.131Z,98466.06
2018-03-28T01:02:20.647Z,98467.52
2018-03-28T01:04:48.196Z,98459.25
2018-03-28T01:07:15.720Z,98453.08
2018-03-28T01:09:43.298Z,98456.52
2018-03-28T01:12:10.839Z,98448.88
2018-03-28T01:14:38.388Z,98454.01
2018-03-28T01:17:05.908Z,98453.28
2018-03-28T01:19:34.268Z,98450.88
2018-03-28T01:22:01.804Z,98443.81
2018-03-28T01:24:29.373Z,98458.92
2018-03-28T01:26:56.895Z,98448.63
2018-03-28T01:29:24.460Z,98440.19
2018-03-28T01:31:51.992Z,98446.73
2018-03-28T01:34:19.551Z,98444.02
2018-03-28T01:36:47.084Z,98447.91
2018-03-28T01:39:14.660Z,98445.28
2018-03-28T01:41:42.285Z,98449.28
2018-03-28T01:44:09.832Z,98446.77
2018-03-28T01:46:37.365Z,98441.77
2018-03-28T01:49:04.928Z,98451.87
2018-03-28T01:51:32.473Z,98448.97
2018-03-28T01:54:00.020Z,98445.70
2018-03-28T01:56:27.576Z,98454.00
2018-03-28T01:58:55.187Z,98444.70
2018-03-28T02:01:22.728Z,98451.72
2018-03-28T02:03:50.244Z,98455.95
2018-03-28T02:06:17.783Z,98462.28
2018-03-28T02:08:45.301Z,98474.77
2018-03-28T02:11:12.857Z,98459.55
2018-03-28T02:13:40.387Z,98475.86
2018-03-28T02:16:07.950Z,98468.91
2018-03-28T02:18:35.493Z,98470.28
2018-03-28T02:21:03.047Z,98466.20
2018-03-28T02:23:30.560Z,98476.24
2018-03-28T02:25:58.112Z,98472.25
2018-03-28T02:28:25.627Z,98476.27
2018-03-28T02:30:53.184Z,98479.08
2018-03-28T02:33:20.709Z,98473.62
2018-03-28T02:35:48.284Z,98478.89
2018-03-28T02:38:15.815Z,98485.73
2018-03-28T02:40:43.367Z,98486.59
2018-03-28T02:43:10.890Z,98485.48
2018-03-28T02:45:38.473Z,98499.84
2018-03-28T02:48:05.993Z,98496.93
2018-03-28T02:50:33.562Z,98489.06
2018-03-28T02:53:01.076Z,98495.91
2018-03-28T02:55:28.646Z,98492.90
2018-03-28T02:57:56.176Z,98503.23
2018-03-28T03:00:23.747Z,98487.80
2018-03-28T03:02:51.265Z,98496.06
2018-03-28T03:05:18.831Z,98500.75
2018-03-28T03:07:46.453Z,98489.69
2018-03-28T03:10:15.206Z,98491.47
2018-03-28T03:12:42.723Z,98500.37
2018-03-28T03:15:12.238Z,98499.54
2018-03-28T03:17:39.976Z,98491.55
2018-03-28T03:20:09.727Z,98502.16
2018-03-28T03:22:39.203Z,98494.03
2018-03-28T03:25:08.285Z,98502.95
2018-03-28T03:27:37.008Z,98512.64
2018-03-28T03:30:05.038Z,98510.44
2018-03-28T03:32:33.084Z,98510.56
2018-03-28T03:35:00.914Z,98511.55
2018-03-28T03:37:30.030Z,98517.83
2018-03-28T03:39:59.084Z,98517.00
2018-03-28T03:42:26.969Z,98523.63
2018-03-28T03:44:56.007Z,98521.65
2018-03-28T03:47:23.837Z,98519.64
2018-03-28T03:49:51.577Z,98525.19
2018-03-28T03:52:20.855Z,98529.20
2018-03-28T03:54:48.378Z,98522.10
2018-03-28T03:57:15.936Z,98511.41
2018-03-28T03:59:43.443Z,98509.89
2018-03-28T04:02:10.999Z,98502.53
2018-03-28T04:04:38.519Z,98510.27
2018-03-28T04:07:06.993Z,98506.03
2018-03-28T04:09:34.512Z,98509.17
2018-03-28T04:12:02.068Z,98503.25
2018-03-28T04:14:29.589Z,98495.23
2018-03-28T04:16:57.137Z,98492.74
2018-03-28T04:19:24.642Z,98487.23
2018-03-28T04:21:52.207Z,98493.41
2018-03-28T04:24:19.729Z,98490.70
2018-03-28T04:26:47.536Z,98500.36
2018-03-28T04:29:15.034Z,98492.02
2018-03-28T04:31:42.583Z,98497.27
2018-03-28T04:34:10.087Z,98499.30
2018-03-28T04:36:38.079Z,98464.56
2018-03-28T04:39:05.572Z,98493.86
2018-03-28T04:41:33.123Z,98492.91
2018-03-28T04:44:00.656Z,98487.73
2018-03-28T04:46:28.275Z,98491.03
2018-03-28T04:48:55.834Z,98479.80
2018-03-28T04:51:23.382Z,98497.55
2018-03-28T04:53:50.900Z,98486.81
2018-03-28T04:56:18.439Z,98479.36
2018-03-28T04:58:45.959Z,98485.06
2018-03-28T05:01:13.505Z,98484.61
2018-03-28T05:03:41.091Z,98480.34
2018-03-28T05:06:08.748Z,98483.11
2018-03-28T05:08:36.259Z,98482.61
2018-03-28T05:11:03.823Z,98479.89
2018-03-28T05:13:31.355Z,98490.19
2018-03-28T05:15:58.904Z,98474.58
2018-03-28T05:18:26.462Z,98466.20
2018-03-28T05:20:53.988Z,98464.45
2018-03-28T05:23:21.540Z,98462.95
2018-03-28T05:25:49.048Z,98468.75
2018-03-28T05:28:16.598Z,98469.45
2018-03-28T05:30:44.122Z,98460.21
2018-03-28T05:33:11.672Z,98473.17
2018-03-28T05:35:39.192Z,98479.65
2018-03-28T05:38:06.744Z,98473.69
2018-03-28T05:40:34.248Z,98473.41
2018-03-28T05:43:01.797Z,98475.83
2018-03-28T05:45:31.040Z,98479.42
2018-03-28T05:47:58.593Z,98479.84
2018-03-28T05:50:26.141Z,98472.16
2018-03-28T05:52:53.844Z,98482.86
2018-03-28T05:55:21.348Z,98491.61
2018-03-28T05:57:48.892Z,98488.84
2018-03-28T06:00:16.413Z,98488.02
2018-03-28T06:02:43.981Z,98487.54
2018-03-28T06:05:11.501Z,98479.80
2018-03-28T06:07:39.056Z,98477.36
2018-03-28T06:10:06.566Z,98478.30
2018-03-28T06:12:34.140Z,98479.48
2018-03-28T06:15:01.668Z,98494.27
2018-03-28T06:17:29.219Z,98497.74
2018-03-28T06:19:56.731Z,98492.55
2018-03-28T06:22:24.283Z,98499.84
2018-03-28T06:24:51.821Z,98500.24
2018-03-28T06:27:19.373Z,98499.90
2018-03-28T06:29:46.883Z,98503.25
2018-03-28T06:32:14.444Z,98505.97
2018-03-28T06:34:41.974Z,98493.13
2018-03-28T06:37:09.531Z,98501.02
2018-03-28T06:39:37.076Z,98500.83
2018-03-28T06:42:06.561Z,98499.52
2018-03-28T06:44:34.096Z,98485.09
2018-03-28T06:47:02.007Z,98479.74
2018-03-28T06:49:29.588Z,98481.73
2018-03-28T06:51:57.186Z,98476.15
2018-03-28T06:54:24.702Z,98467.29
2018-03-28T06:56:52.227Z,98472.04
2018-03-28T06:59:19.776Z,98473.89
2018-03-28T07:01:47.296Z,98475.29
2018-03-28T07:04:14.859Z,98475.73
2018-03-28T07:06:42.795Z,98465.70
2018-03-28T07:09:10.501Z,98469.20
2018-03-28T07:11:38.429Z,98474.87
2018-03-28T07:14:05.972Z,98470.29
2018-03-28T07:16:34.407Z,98468.53
2018-03-28T07:19:02.080Z,98465.38
2018-03-28T07:21:29.626Z,98460.86
2018-03-28T07:23:57.171Z,98453.87
2018-03-28T07:26:24.692Z,98456.94
2018-03-28T07:28:52.240Z,98456.36
2018-03-28T07:31:19.754Z,98446.25
2018-03-28T07:33:47.333Z,98445.28
2018-03-28T07:36:14.859Z,98443.94
2018-03-28T07:38:42.413Z,98435.11
2018-03-28T07:41:09.937Z,98442.14
2018-03-28T07:43:37.492Z,98442.39
2018-03-28T07:46:05.045Z,98432.53
2018-03-28T07:48:32.615Z,98442.21
2018-03-28T07:51:00.171Z,98446.56
2018-03-28T07:53:27.718Z,98435.39
2018-03-28T07:55:55.354Z,98439.73
2018-03-28T07:58:22.908Z,98438.86
2018-03-28T08:00:50.431Z,98428.59
2018-03-28T08:03:17.981Z,98425.53
2018-03-28T08:05:46.417Z,98429.17
2018-03-28T08:08:14.107Z,98434.16
2018-03-28T08:10:41.625Z,98436.59
2018-03-28T08:13:09.685Z,98422.30
2018-03-28T08:15:41.297Z,98418.65
2018-03-28T08:18:11.894Z,98417.69
2018-03-28T08:20:39.576Z,98417.52
2018-03-28T08:23:07.148Z,98427.01
2018-03-28T08:25:35.298Z,98422.80
2018-03-28T08:28:02.951Z,98429.45
2018-03-28T08:30:30.707Z,98429.42
2018-03-28T08:32:58.241Z,98419.47
2018-03-28T08:35:26.315Z,98415.40
2018-03-28T08:37:53.902Z,98424.11
2018-03-28T08:40:21.491Z,98408.06
2018-03-28T08:42:48.997Z,98419.78
2018-03-28T08:45:22.449Z,98412.75
2018-03-28T08:47:50.333Z,98410.09
2018-03-28T08:50:23.554Z,98417.16
2018-03-28T08:52:51.375Z,98410.27
2018-03-28T08:55:19.078Z,98410.38
2018-03-28T08:57:46.768Z,98409.09
2018-03-28T09:00:14.368Z,98409.72
2018-03-28T09:02:42.158Z,98408.17
2018-03-28T09:05:10.740Z,98398.42
2018-03-28T09:07:39.480Z,98413.72
2018-03-28T09:10:12.936Z,98398.63
2018-03-28T09:12:41.027Z,98391.58
2018-03-28T09:15:09.299Z,98379.45
2018-03-28T09:17:37.152Z,98388.69
2018-03-28T09:20:04.727Z,98382.86
2018-03-28T09:22:32.253Z,98388.98
2018-03-28T09:24:59.800Z,98379.83
2018-03-28T09:27:27.568Z,98388.20
2018-03-28T09:29:55.348Z,98381.92
2018-03-28T09:32:26.609Z,98371.05
2018-03-28T09:34:56.664Z,98368.27
2018-03-28T09:37:24.378Z,98363.37
2018-03-28T09:39:59.350Z,98361.19
2018-03-28T09:42:31.263Z,98357.27
2018-03-28T09:44:59.399Z,98361.78
2018-03-28T09:47:27.152Z,98353.92
2018-03-28T09:49:54.739Z,98356.51
2018-03-28T09:52:26.152Z,98354.89
2018-03-28T09:54:53.862Z,98346.31
2018-03-28T09:57:22.017Z,98343.73
2018-03-28T09:59:50.075Z,98337.08
2018-03-28T10:02:17.595Z,98327.37
2018-03-28T10:04:50.075Z,98322.70
2018-03-28T10:07:17.603Z,98317.58
2018-03-28T10:09:45.151Z,98324.77
2018-03-28T10:12:12.684Z,98312.55
2018-03-28T10:14:40.922Z,98301.42
2018-03-28T10:17:08.514Z,98308.72
2018-03-28T10:19:36.163Z,98297.50
2018-03-28T10:22:03.804Z,98292.14
2018-03-28T10:24:31.488Z,98278.26
2018-03-28T10:26:59.106Z,98281.51
2018-03-28T10:29:26.740Z,98276.00
2018-03-28T10:31:54.287Z,98276.42
2018-03-28T10:34:21.820Z,98273.05
2018-03-28T10:36:50.111Z,98269.97
2018-03-28T10:39:17.630Z,98259.54
2018-03-28T10:41:45.207Z,98263.80
2018-03-28T10:44:12.749Z,98258.50
2018-03-28T10:46:40.559Z,98254.63
2018-03-28T10:49:08.263Z,98253.02
2018-03-28T10:51:36.738Z,98239.58
2018-03-28T10:54:04.331Z,98223.94
2018-03-28T10:56:31.905Z,98219.95
2018-03-28T10:58:59.896Z,98219.02
2018-03-28T11:01:27.629Z,98223.28
2018-03-28T11:03:55.162Z,98208.80
2018-03-28T11:06:22.699Z,98212.64
2018-03-28T11:08:50.219Z,98205.29
2018-03-28T11:11:17.762Z,98202.48
2018-03-28T11:13:45.730Z,98199.73
2018-03-28T11:16:13.433Z,98195.61
2018-03-28T11:18:41.023Z,98192.48
2018-03-28T11:21:08.572Z,98195.00
2018-03-28T11:23:36.258Z,98179.00
2018-03-28T11:26:03.800Z,98172.95
2018-03-28T11:28:32.524Z,98166.69
2018-03-28T11:31:00.112Z,98161.88
2018-03-28T11:33:27.623Z,98153.95
2018-03-28T11:35:55.164Z,98143.69
2018-03-28T11:38:23.227Z,98133.02
2018-03-28T11:40:50.787Z,98129.72
2018-03-28T11:43:18.813Z,98118.25
2018-03-28T11:45:46.464Z,98116.19
2018-03-28T11:48:14.013Z,98108.97
2018-03-28T11:50:48.314Z,98091.28
2018-03-28T11:53:19.373Z,98089.03
2018-03-28T11:58:23.596Z,98082.59
2018-03-28T12:00:55.725Z,98075.38
2018-03-28T12:03:27.662Z,98068.00
2018-03-28T12:05:58.323Z,98055.98
2018-03-28T12:08:26.458Z,98048.42
2018-03-28T12:10:54.746Z,98045.11
2018-03-28T12:13:22.347Z,98026.94
2018-03-28T12:15:53.444Z,98022.31
2018-03-28T12:18:21.065Z,98007.20
2018-03-28T12:20:51.023Z,98001.95
2018-03-28T12:23:24.578Z,97999.41
2018-03-28T12:25:52.902Z,97986.01
2018-03-28T12:28:27.948Z,97980.87
2018-03-28T12:31:00.314Z,97975.25
2018-03-28T12:33:28.414Z,97966.28
2018-03-28T12:35:58.194Z,97954.47
2018-03-28T12:38:35.425Z,97955.38
2018-03-28T12:41:03.282Z,97945.28
2018-03-28T12:43:35.196Z,97942.03
2018-03-28T12:46:05.065Z,97940.73
2018-03-28T12:48:32.918Z,97931.72
2018-03-28T12:51:03.240Z,97926.66
2018-03-28T12:53:33.578Z,97917.50
2018-03-28T12:56:01.842Z,97903.09
2018-03-28T12:58:31.548Z,97905.55
2018-03-28T13:01:00.454Z,97896.41
2018-03-28T13:03:28.282Z,97899.54
2018-03-28T13:06:00.081Z,97887.98
2018-03-28T13:08:30.827Z,97880.34
2018-03-28T13:10:59.632Z,97880.20
2018-03-28T13:13:27.360Z,97869.48
2018-03-28T13:15:57.039Z,97867.25
2018-03-28T13:18:27.596Z,97867.81
2018-03-28T13:20:58.877Z,97856.48
2018-03-28T13:23:30.099Z,97849.85
2018-03-28T13:25:58.052Z,97839.30
2018-03-28T13:28:28.297Z,97837.61
2018-03-28T13:30:57.885Z,97848.83
2018-03-28T13:33:29.335Z,97831.42
2018-03-28T13:36:03.623Z,97811.91
2018-03-28T13:38:35.385Z,97831.72
2018-03-28T13:41:04.866Z,97824.67
2018-03-28T13:43:32.420Z,97819.77
2018-03-28T13:45:59.975Z,97809.41
2018-03-28T13:48:27.715Z,97803.47
2018-03-28T13:50:56.535Z,97796.50
2018-03-28T13:53:29.581Z,97798.17
2018-03-28T13:55:59.257Z,97789.36
2018-03-28T13:58:26.991Z,97786.55
2018-03-28T14:00:54.511Z,97786.27
2018-03-28T14:03:22.268Z,97786.86
2018-03-28T14:05:51.020Z,97780.63
2018-03-28T14:08:20.164Z,97777.69
2018-03-28T14:10:47.704Z,97769.41
2018-03-28T14:13:15.258Z,97784.77
2018-03-28T14:15:43.073Z,97779.25
2018-03-28T14:18:10.624Z,97785.08
2018-03-28T14:20:38.164Z,97773.38
2018-03-28T14:23:05.801Z,97765.16
2018-03-28T14:25:33.314Z,97765.61
2018-03-28T14:28:00.961Z,97760.41
2018-03-28T14:30:28.551Z,97739.55
2018-03-28T14:32:56.520Z,97743.57
2018-03-28T14:35:24.036Z,97743.58
2018-03-28T14:37:51.595Z,97740.79
2018-03-28T14:40:19.231Z,97741.92
2018-03-28T14:42:54.592Z,97731.60
2018-03-28T14:45:14.389Z,97723.11
2018-03-28T14:47:41.936Z,97727.05
2018-03-28T14:50:09.484Z,97721.03
2018-03-28T14:52:37.027Z,97721.58
2018-03-28T14:55:06.843Z,97721.45
2018-03-28T14:57:34.402Z,97719.04
2018-03-28T15:00:01.919Z,97712.94
2018-03-28T15:02:29.473Z,97704.65
2018-03-28T15:04:56.992Z,97703.41
2018-03-28T15:07:24.571Z,97701.77
2018-03-28T15:09:52.350Z,97703.34
2018-03-28T15:12:19.955Z,97692.30
2018-03-28T15:14:47.615Z,97682.07
2018-03-28T15:17:15.963Z,97649.38
2018-03-28T15:19:45.731Z,97677.05
2018-03-28T15:22:13.243Z,97665.83
2018-03-28T15:24:40.817Z,97666.81
2018-03-28T15:27:08.340Z,97665.77
2018-03-28T15:29:36.324Z,97671.34
2018-03-28T15:32:03.874Z,97663.14
2018-03-28T15:34:31.442Z,97662.65
2018-03-28T15:36:59.084Z,97660.16
2018-03-28T15:39:26.699Z,97651.46
2018-03-28T15:41:54.184Z,97654.77
2018-03-28T15:44:21.766Z,97665.19
2018-03-28T15:46:49.279Z,97648.13
2018-03-28T15:49:16.836Z,97652.55
2018-03-28T15:51:44.760Z,97660.14
2018-03-28T15:54:12.325Z,97638.27
2018-03-28T15:56:40.246Z,97620.92
2018-03-28T15:59:07.906Z,97610.27
2018-03-28T16:01:35.395Z,97617.83
2018-03-28T16:04:02.943Z,97613.73
2018-03-28T16:06:30.471Z,97616.36
2018-03-28T16:08:58.929Z,97596.88
2018-03-28T16:11:26.528Z,97604.20
2018-03-28T16:13:59.838Z,97605.56
2018-03-28T16:16:29.529Z,97598.73
2018-03-28T16:18:59.403Z,97602.12
2018-03-28T16:21:28.781Z,97595.37
2018-03-28T16:23:58.171Z,97592.66
2018-03-28T16:26:29.084Z,97584.33
2018-03-28T16:28:57.214Z,97598.14
2018-03-28T16:31:27.748Z,97595.28
2018-03-28T16:33:57.976Z,97589.97
2018-03-28T16:36:26.318Z,97583.22
2018-03-28T16:38:56.139Z,97590.50
2018-03-28T16:41:24.037Z,97587.09
2018-03-28T16:43:55.038Z,97592.28
2018-03-28T16:46:22.712Z,97580.30
2018-03-28T16:48:53.360Z,97583.48
2018-03-28T16:51:24.411Z,97588.43
2018-03-28T16:53:53.852Z,97578.08
2018-03-28T16:56:24.225Z,97560.88
2018-03-28T17:01:32.885Z,97563.03
2018-03-28T17:04:03.447Z,97577.45
2018-03-28T17:06:35.073Z,97588.54
2018-03-28T17:09:07.148Z,97573.12
2018-03-28T17:11:38.226Z,97583.64
2018-03-28T17:14:08.662Z,97595.69
2018-03-28T17:16:40.032Z,97611.31
2018-03-28T17:19:13.873Z,97657.62
2018-03-28T17:21:46.419Z,97691.45
2018-03-28T17:24:18.978Z,97677.55
2018-03-28T17:26:50.025Z,97669.33
2018-03-28T17:29:22.282Z,97648.89
2018-03-28T17:31:54.526Z,97664.70
2018-03-28T17:37:04.183Z,97680.55
2018-03-28T17:39:35.694Z,97663.23
2018-03-28T17:42:06.188Z,97673.80
2018-03-28T17:44:39.967Z,97682.36
2018-03-28T17:47:12.299Z,97677.11
2018-03-28T17:49:44.779Z,97680.69
2018-03-28T17:52:20.905Z,97688.30
2018-03-28T17:54:54.489Z,97683.83
2018-03-28T17:57:27.079Z,97685.91
2018-03-28T17:59:59.459Z,97690.19
2018-03-28T18:02:30.939Z,97693.95
2018-03-28T18:05:06.766Z,97699.13
2018-03-28T18:07:39.844Z,97701.69
2018-03-28T18:10:12.929Z,97694.95
2018-03-28T18:12:47.141Z,97704.51
2018-03-28T18:15:21.523Z,97716.20
2018-03-28T18:17:53.775Z,97730.00
2018-03-28T18:20:33.450Z,97734.75
2018-03-28T18:23:05.750Z,97740.20
2018-03-28T18:25:40.532Z,97760.43
2018-03-28T18:28:12.162Z,97760.55
2018-03-28T18:30:48.208Z,97770.33
2018-03-28T18:33:18.504Z,97774.39
2018-03-28T18:35:49.658Z,97776.44
2018-03-28T18:38:21.344Z,97824.22
2018-03-28T18:40:53.065Z,97821.16
2018-03-28T18:43:24.159Z,97825.36
2018-03-28T18:45:55.130Z,97834.52
2018-03-28T18:48:27.238Z,97843.61
2018-03-28T18:50:57.315Z,97846.17
2018-03-28T18:53:25.061Z,97867.61
2018-03-28T18:55:52.592Z,97861.98
2018-03-28T18:58:20.135Z,97869.41
2018-03-28T19:00:47.918Z,97852.27
2018-03-28T19:03:15.540Z,97876.48
2018-03-28T19:05:43.070Z,97873.77
2018-03-28T19:08:11.049Z,97893.61
2018-03-28T19:10:38.595Z,97895.84
2018-03-28T19:13:06.290Z,97898.88
2018-03-28T19:15:36.175Z,97906.95
2018-03-28T19:18:04.231Z,97934.14
2018-03-28T19:20:32.550Z,97915.13
2018-03-28T19:23:00.648Z,97920.83
2018-03-28T19:25:28.161Z,97918.92
2018-03-28T19:27:55.700Z,97910.11
2018-03-28T19:30:23.221Z,97940.73
2018-03-28T19:32:50.771Z,97930.88
2018-03-28T19:35:18.875Z,97936.86
2018-03-28T19:37:46.945Z,97934.42
2018-03-28T19:40:14.452Z,97949.91
2018-03-28T19:42:42.104Z,97950.16
2018-03-28T19:45:09.863Z,97965.19
2018-03-28T19:47:37.419Z,97981.31
2018-03-28T19:50:04.985Z,97976.23
2018-03-28T19:52:32.510Z,97972.66
2018-03-28T19:55:00.065Z,97978.51
2018-03-28T19:57:27.604Z,97972.45
2018-03-28T19:59:55.163Z,97989.71
2018-03-28T20:02:22.673Z,97991.94
2018-03-28T20:04:50.550Z,97994.56
2018-03-28T20:07:19.374Z,97982.15
2018-03-28T20:09:46.954Z,97977.80
2018-03-28T20:12:14.563Z,97981.14
2018-03-28T20:14:42.346Z,97996.80
2018-03-28T20:17:10.334Z,98012.74
2018-03-28T20:19:37.890Z,98005.64
2018-03-28T20:22:05.888Z,98006.94
2018-03-28T20:24:34.098Z,98007.22
2018-03-28T20:27:01.722Z,98022.89
2018-03-28T20:29:29.306Z,98030.92
2018-03-28T20:31:56.824Z,98030.38
2018-03-28T20:34:24.343Z,98028.73
2018-03-28T20:36:51.900Z,98040.55
2018-03-28T20:39:19.430Z,98050.89
2018-03-28T20:41:46.982Z,98056.48
2018-03-28T20:44:14.493Z,98070.05
2018-03-28T20:46:42.041Z,98070.52
2018-03-28T20:49:09.559Z,98074.70
2018-03-28T20:51:37.122Z,98073.81
2018-03-28T20:54:04.656Z,98083.05
2018-03-28T20:56:32.220Z,98084.15
2018-03-28T20:59:01.851Z,98093.31
2018-03-28T21:01:29.427Z,98092.20
2018-03-28T21:03:56.973Z,98103.31
2018-03-28T21:06:24.523Z,98104.90
2018-03-28T21:08:52.069Z,98100.45
2018-03-28T21:11:21.358Z,98101.80
2018-03-28T21:13:49.332Z,98090.05
2018-03-28T21:16:16.884Z,98093.21
2018-03-28T21:18:44.435Z,98118.64
2018-03-28T21:21:11.938Z,98093.14
2018-03-28T21:23:39.491Z,98129.73
2018-03-28T21:26:07.028Z,98098.64
2018-03-28T21:28:34.605Z,98092.53
2018-03-28T21:31:02.120Z,98093.77
2018-03-28T21:33:33.675Z,98116.45
2018-03-28T21:36:04.303Z,98122.73
2018-03-28T21:38:32.127Z,98142.98
2018-03-28T21:40:59.659Z,98132.84
2018-03-28T21:43:28.815Z,98142.83
2018-03-28T21:46:00.075Z,98135.39
2018-03-28T21:48:29.014Z,98152.36
2018-03-28T21:50:59.871Z,98163.05
2018-03-28T21:53:29.631Z,98162.06
2018-03-28T21:56:00.027Z,98171.83
2018-03-28T21:58:27.649Z,98182.28
2018-03-28T22:00:58.051Z,98184.98
2018-03-28T22:03:31.412Z,98203.30
2018-03-28T22:06:04.750Z,98192.75
2018-03-28T22:08:32.565Z,98206.45
2018-03-28T22:11:00.314Z,98206.90
2018-03-28T22:13:32.200Z,98209.53
2018-03-28T22:16:00.763Z,98213.98
2018-03-28T22:18:28.443Z,98215.93
2018-03-28T22:20:56.908Z,98216.14
2018-03-28T22:23:24.719Z,98213.70
2018-03-28T22:25:52.258Z,98214.25
2018-03-28T22:28:23.728Z,98221.03
2018-03-28T22:30:52.111Z,98215.47
2018-03-28T22:33:20.292Z,98214.34
2018-03-28T22:35:47.938Z,98213.93
2018-03-28T22:38:16.193Z,98214.14
2018-03-28T22:40:44.575Z,98217.32
2018-03-28T22:43:13.556Z,98226.13
2018-03-28T22:45:45.616Z,98235.14
2018-03-28T22:48:13.364Z,98244.36
2018-03-28T22:50:41.695Z,98262.45
2018-03-28T22:53:09.299Z,98244.31
2018-03-28T22:55:36.840Z,98252.17
2018-03-28T22:58:04.392Z,98243.86
2018-03-28T23:00:31.944Z,98258.92
2018-03-28T23:02:59.463Z,98246.62
2018-03-28T23:05:28.496Z,98253.48
2018-03-28T23:07:56.278Z,98254.14
2018-03-28T23:10:24.669Z,98264.33
2018-03-28T23:12:53.169Z,98251.30
2018-03-28T23:15:22.100Z,98269.59
2018-03-28T23:17:54.922Z,98274.80
2018-03-28T23:20:25.909Z,98264.62
2018-03-28T23:22:54.639Z,98270.69
2018-03-28T23:25:22.169Z,98274.36
2018-03-28T23:27:52.625Z,98277.77
2018-03-28T23:30:22.957Z,98289.88
2018-03-28T23:32:51.638Z,98294.28
2018-03-28T23:35:19.769Z,98283.06
2018-03-28T23:37:47.871Z,98282.17
2018-03-28T23:40:16.501Z,98297.95
2018-03-28T23:42:46.385Z,98300.97
2018-03-28T23:45:14.491Z,98292.33
2018-03-28T23:47:42.705Z,98292.91
2018-03-28T23:50:12.080Z,98296.98
2018-03-28T23:52:39.600Z,98302.68
2018-03-28T23:55:11.643Z,98300.55
2018-03-28T23:57:39.305Z,98303.56
